Time;durP1;ratioP1;P1;durP2;ratioP2;P2;SDS_P1;SDS_P2;PMS_P1;PMS_P2;Temp;Humidity;BMP_temperature;BMP_pressure;BME280_temperature;BME280_humidity;BME280_pressure;Samples;Min_cycle;Max_cycle;Signal;HPM_P1;HPM_P2
2021/12/24 00:00:36;;;;;;;13.33;9.70;;;;;;;;;;5091787;28;20208;-78
2021/12/24 00:03:02;;;;;;;15.70;9.33;;;;;;;;;;5095044;28;20180;-78
2021/12/24 00:05:29;;;;;;;13.33;9.97;;;;;;;;;;5089048;28;20220;-78
2021/12/24 00:07:55;;;;;;;13.50;9.27;;;;;;;;;;5088127;28;20263;-78
2021/12/24 00:10:21;;;;;;;13.83;9.53;;;;;;;;;;5090114;28;20184;-78
2021/12/24 00:12:56;;;;;;;11.10;8.53;;;;;;;;;;5089280;28;20203;-78
2021/12/24 00:15:48;;;;;;;13.47;9.53;;;;;;;;;;5089296;28;20196;-78
2021/12/24 00:18:24;;;;;;;13.20;8.60;;;;;;;;;;5093922;28;20180;-78
2021/12/24 00:21:54;;;;;;;11.57;8.87;;;;;;;;;;5072076;28;20638;-78
2021/12/24 00:37:07;;;;;;;12.63;9.23;;;;;;;;;;5092516;28;20552;-78
2021/12/24 00:39:39;;;;;;;11.93;9.30;;;;;;;;;;5093257;28;20644;-78
2021/12/24 00:42:05;;;;;;;11.37;9.10;;;;;;;;;;5092542;28;20251;-78
2021/12/24 00:44:31;;;;;;;13.17;9.40;;;;;;;;;;5093915;28;20176;-78
2021/12/24 00:46:57;;;;;;;13.80;9.73;;;;;;;;;;5094146;28;20183;-78
2021/12/24 00:49:24;;;;;;;13.43;8.70;;;;;;;;;;5093023;28;20660;-78
2021/12/24 00:52:20;;;;;;;15.47;10.50;;;;;;;;;;5092249;28;20176;-78
2021/12/24 00:55:03;;;;;;;14.87;9.60;;;;;;;;;;5075584;28;20615;-78
2021/12/24 00:57:30;;;;;;;12.10;8.27;;;;;;;;;;5090245;28;20753;-78
2021/12/24 00:59:57;;;;;;;14.67;9.97;;;;;;;;;;5063558;28;20189;-78
2021/12/24 01:02:23;;;;;;;13.23;9.13;;;;;;;;;;5073535;28;20735;-78
2021/12/24 01:04:50;;;;;;;10.80;8.83;;;;;;;;;;5088876;28;20270;-78
2021/12/24 01:07:17;;;;;;;10.80;8.73;;;;;;;;;;5088968;28;20686;-78
2021/12/24 01:09:43;;;;;;;14.07;9.07;;;;;;;;;;5088686;28;20617;-78
2021/12/24 01:12:09;;;;;;;10.67;8.23;;;;;;;;;;5072163;28;20216;-78
2021/12/24 01:14:35;;;;;;;12.07;8.60;;;;;;;;;;5088770;28;20809;-78
2021/12/24 01:17:18;;;;;;;12.03;8.70;;;;;;;;;;5088716;28;20177;-79
2021/12/24 01:19:47;;;;;;;14.57;9.33;;;;;;;;;;5088418;28;20181;-79
2021/12/24 01:24:50;;;;;;;12.37;8.50;;;;;;;;;;5088188;28;20256;-79
2021/12/24 01:27:49;;;;;;;9.53;7.63;;;;;;;;;;5087770;28;20193;-79
2021/12/24 01:37:52;;;;;;;11.83;8.63;;;;;;;;;;5073668;28;20196;-79
2021/12/24 01:38:56;;;;;;;14.87;8.27;;;;;;;;;;5074070;28;20599;-78
2021/12/24 01:44:08;;;;;;;10.80;7.67;;;;;;;;;;5084795;28;20181;-78
2021/12/24 01:46:35;;;;;;;9.33;7.50;;;;;;;;;;5074468;28;20192;-78
2021/12/24 01:49:02;;;;;;;8.97;7.00;;;;;;;;;;5074683;28;20184;-78
2021/12/24 01:51:29;;;;;;;11.33;7.97;;;;;;;;;;5071671;28;20192;-78
2021/12/24 01:53:56;;;;;;;9.77;7.83;;;;;;;;;;5071011;28;20185;-78
2021/12/24 01:56:22;;;;;;;10.23;8.37;;;;;;;;;;5073817;28;20212;-79
2021/12/24 01:58:49;;;;;;;10.37;7.83;;;;;;;;;;5073830;28;20180;-78
2021/12/24 02:01:15;;;;;;;12.03;8.07;;;;;;;;;;5074312;28;20232;-78
2021/12/24 02:03:41;;;;;;;11.17;8.07;;;;;;;;;;5092100;28;20184;-78
2021/12/24 02:06:08;;;;;;;11.77;8.13;;;;;;;;;;5090700;28;20561;-78
2021/12/24 02:08:34;;;;;;;14.00;8.10;;;;;;;;;;5090870;28;20176;-78
2021/12/24 02:11:00;;;;;;;12.30;8.43;;;;;;;;;;5082930;28;20176;-78
2021/12/24 02:13:28;;;;;;;10.30;7.67;;;;;;;;;;5090328;28;20180;-78
2021/12/24 02:16:13;;;;;;;14.40;9.17;;;;;;;;;;5090629;28;20210;-78
2021/12/24 02:29:40;;;;;;;10.60;8.33;;;;;;;;;;5090446;28;20169;-79
2021/12/24 02:32:07;;;;;;;10.10;7.60;;;;;;;;;;5073707;28;20656;-78
2021/12/24 02:34:33;;;;;;;12.50;8.50;;;;;;;;;;5089721;28;20219;-78
2021/12/24 02:36:59;;;;;;;10.70;7.87;;;;;;;;;;5073725;28;20612;-78
2021/12/24 02:39:25;;;;;;;11.60;8.77;;;;;;;;;;5091565;28;20300;-78
2021/12/24 02:41:52;;;;;;;12.67;8.40;;;;;;;;;;5090260;28;20291;-78
2021/12/24 02:44:19;;;;;;;11.60;8.40;;;;;;;;;;5089889;28;20233;-78
2021/12/24 02:47:39;;;;;;;13.33;8.90;;;;;;;;;;5089833;28;20192;-78
2021/12/24 02:54:58;;;;;;;14.43;8.60;;;;;;;;;;5089523;28;20200;-78
2021/12/24 02:57:27;;;;;;;11.80;7.67;;;;;;;;;;5089642;28;20227;-78
2021/12/24 03:00:06;;;;;;;10.73;7.97;;;;;;;;;;5089706;28;20233;-78
2021/12/24 03:02:33;;;;;;;10.47;7.73;;;;;;;;;;5069577;28;20765;-78
2021/12/24 03:05:00;;;;;;;12.27;7.93;;;;;;;;;;5088912;28;20313;-78
2021/12/24 03:07:26;;;;;;;11.30;8.50;;;;;;;;;;5069780;28;20205;-78
2021/12/24 03:09:53;;;;;;;10.90;8.10;;;;;;;;;;5063574;28;20228;-78
2021/12/24 03:12:20;;;;;;;10.47;8.23;;;;;;;;;;5070109;28;20180;-78
2021/12/24 03:14:46;;;;;;;12.37;7.97;;;;;;;;;;5052774;28;20221;-78
2021/12/24 03:17:18;;;;;;;10.07;8.10;;;;;;;;;;5085993;28;20184;-78
2021/12/24 03:19:44;;;;;;;12.43;8.67;;;;;;;;;;5086627;28;20263;-78
2021/12/24 03:24:36;;;;;;;12.83;8.23;;;;;;;;;;5089879;28;20185;-78
2021/12/24 03:27:04;;;;;;;11.63;8.13;;;;;;;;;;5088748;28;20184;-78
2021/12/24 03:29:30;;;;;;;11.23;7.90;;;;;;;;;;5089649;28;20821;-78
2021/12/24 03:31:56;;;;;;;11.53;8.10;;;;;;;;;;5056315;28;20196;-78
2021/12/24 03:34:23;;;;;;;13.77;8.70;;;;;;;;;;5072577;28;20287;-78
2021/12/24 03:36:50;;;;;;;13.40;8.77;;;;;;;;;;5088780;28;20180;-78
2021/12/24 03:39:22;;;;;;;11.77;8.40;;;;;;;;;;5089402;28;20671;-78
2021/12/24 03:41:50;;;;;;;10.03;7.50;;;;;;;;;;5088656;28;20256;-78
2021/12/24 03:44:18;;;;;;;10.13;7.70;;;;;;;;;;5088922;28;20181;-78
2021/12/24 03:47:00;;;;;;;10.87;7.70;;;;;;;;;;5088627;28;20211;-78
2021/12/24 03:49:37;;;;;;;9.30;7.40;;;;;;;;;;5068974;28;20173;-78
2021/12/24 03:54:56;;;;;;;11.40;7.40;;;;;;;;;;5043915;28;20209;-78
2021/12/24 03:57:26;;;;;;;8.90;7.07;;;;;;;;;;5086849;28;20208;-77
2021/12/24 04:00:16;;;;;;;10.70;7.50;;;;;;;;;;5081605;28;20224;-77
2021/12/24 04:02:42;;;;;;;9.17;7.17;;;;;;;;;;5083483;28;20544;-77
2021/12/24 04:05:41;;;;;;;10.37;7.47;;;;;;;;;;5084044;28;20200;-77
2021/12/24 04:08:26;;;;;;;11.13;7.70;;;;;;;;;;5095778;28;20184;-77
2021/12/24 04:11:05;;;;;;;12.00;7.97;;;;;;;;;;5092849;28;20251;-77
2021/12/24 04:13:35;;;;;;;9.87;7.37;;;;;;;;;;5091445;28;20200;-77
2021/12/24 04:16:01;;;;;;;10.73;7.63;;;;;;;;;;5073419;28;20284;-77
2021/12/24 04:26:32;;;;;;;9.57;7.40;;;;;;;;;;5092206;28;20243;-78
2021/12/24 04:28:59;;;;;;;11.00;6.97;;;;;;;;;;5091937;28;20180;-78
2021/12/24 04:31:32;;;;;;;9.57;7.13;;;;;;;;;;5092547;28;20184;-78
2021/12/24 04:34:25;;;;;;;9.53;6.53;;;;;;;;;;5064910;28;20220;-78
2021/12/24 05:01:23;;;;;;;9.77;7.60;;;;;;;;;;5075591;28;20213;-78
2021/12/24 05:03:51;;;;;;;9.07;7.00;;;;;;;;;;5054052;28;20238;-78
2021/12/24 05:08:51;;;;;;;9.07;7.33;;;;;;;;;;5074937;28;20172;-78
2021/12/24 05:11:18;;;;;;;9.13;7.00;;;;;;;;;;5091756;28;20169;-78
2021/12/24 05:13:44;;;;;;;8.53;6.77;;;;;;;;;;5091799;28;20164;-78
2021/12/24 05:17:04;;;;;;;7.37;5.97;;;;;;;;;;5092901;28;20200;-78
2021/12/24 05:22:33;;;;;;;10.37;6.77;;;;;;;;;;5091192;28;20231;-78
2021/12/24 05:25:05;;;;;;;10.37;6.43;;;;;;;;;;5091345;28;20720;-78
2021/12/24 05:27:31;;;;;;;11.30;7.17;;;;;;;;;;5091828;28;20176;-78
2021/12/24 05:29:57;;;;;;;10.63;7.43;;;;;;;;;;5091234;28;20183;-78
2021/12/24 05:32:23;;;;;;;8.87;6.50;;;;;;;;;;5090838;28;20279;-78
2021/12/24 05:34:49;;;;;;;10.87;7.37;;;;;;;;;;5074059;28;20636;-78
2021/12/24 05:37:16;;;;;;;9.20;7.37;;;;;;;;;;5090918;28;20655;-78
2021/12/24 05:39:42;;;;;;;12.00;8.30;;;;;;;;;;5091255;28;20180;-77
2021/12/24 05:42:08;;;;;;;11.07;7.83;;;;;;;;;;5074338;28;20308;-78
2021/12/24 05:44:34;;;;;;;9.20;6.80;;;;;;;;;;5090562;28;20597;-77
2021/12/24 05:47:06;;;;;;;12.57;8.33;;;;;;;;;;5088270;28;20284;-77
2021/12/24 05:49:44;;;;;;;10.80;8.20;;;;;;;;;;5090646;28;20177;-77
2021/12/24 05:52:49;;;;;;;11.77;7.87;;;;;;;;;;5029027;28;20777;-78
2021/12/24 05:55:31;;;;;;;11.57;8.40;;;;;;;;;;5004829;28;20214;-78
2021/12/24 05:58:08;;;;;;;12.03;8.23;;;;;;;;;;5062154;28;20277;-78
2021/12/24 06:00:38;;;;;;;11.43;8.63;;;;;;;;;;5070664;28;20420;-78
2021/12/24 06:03:06;;;;;;;10.20;8.33;;;;;;;;;;5076354;28;20177;-78
2021/12/24 06:05:32;;;;;;;11.87;8.70;;;;;;;;;;5090332;28;20746;-78
2021/12/24 06:07:59;;;;;;;12.07;8.80;;;;;;;;;;5091214;28;20176;-78
2021/12/24 06:10:25;;;;;;;13.13;8.20;;;;;;;;;;5091863;28;20168;-78
2021/12/24 06:12:51;;;;;;;12.17;9.27;;;;;;;;;;5090039;28;20180;-78
2021/12/24 06:15:23;;;;;;;12.00;8.87;;;;;;;;;;5090145;28;20232;-77
2021/12/24 06:17:52;;;;;;;13.57;9.37;;;;;;;;;;5089826;28;20482;-78
2021/12/24 06:20:19;;;;;;;12.43;9.13;;;;;;;;;;5090950;28;20226;-78
2021/12/24 06:22:45;;;;;;;10.90;8.80;;;;;;;;;;5091230;28;20218;-78
2021/12/24 06:25:12;;;;;;;12.93;8.40;;;;;;;;;;5088921;28;20204;-78
2021/12/24 06:27:38;;;;;;;10.67;8.27;;;;;;;;;;5090943;28;20204;-78
2021/12/24 06:30:05;;;;;;;12.57;8.77;;;;;;;;;;5089772;28;20171;-77
2021/12/24 06:32:31;;;;;;;12.57;8.90;;;;;;;;;;5089416;28;20188;-78
2021/12/24 06:34:57;;;;;;;10.80;8.10;;;;;;;;;;5090172;28;20216;-78
2021/12/24 06:37:24;;;;;;;12.40;8.77;;;;;;;;;;5072163;28;20191;-78
2021/12/24 06:39:50;;;;;;;12.70;8.67;;;;;;;;;;5089820;28;20621;-78
2021/12/24 06:42:17;;;;;;;12.23;9.60;;;;;;;;;;5090346;28;20204;-78
2021/12/24 06:44:43;;;;;;;13.00;9.43;;;;;;;;;;5072862;28;20184;-78
2021/12/24 06:47:09;;;;;;;10.37;8.47;;;;;;;;;;5086666;28;20207;-78
2021/12/24 06:49:36;;;;;;;12.40;9.77;;;;;;;;;;5071949;28;20227;-78
2021/12/24 06:52:02;;;;;;;12.17;8.97;;;;;;;;;;5090875;28;20188;-77
2021/12/24 06:54:30;;;;;;;14.70;9.70;;;;;;;;;;5090431;28;20237;-78
2021/12/24 06:56:58;;;;;;;12.70;9.10;;;;;;;;;;5088217;28;20667;-78
2021/12/24 06:59:24;;;;;;;13.73;9.70;;;;;;;;;;5089356;28;20180;-78
2021/12/24 07:01:51;;;;;;;15.93;10.30;;;;;;;;;;5073583;28;20211;-78
2021/12/24 07:04:17;;;;;;;15.87;10.37;;;;;;;;;;5091295;28;20183;-78
2021/12/24 07:06:45;;;;;;;14.60;10.60;;;;;;;;;;5088731;28;20567;-78
2021/12/24 07:09:15;;;;;;;15.03;11.00;;;;;;;;;;5090439;28;20196;-78
2021/12/24 07:11:41;;;;;;;13.33;9.60;;;;;;;;;;5089465;28;20185;-78
2021/12/24 07:14:07;;;;;;;14.97;9.67;;;;;;;;;;5088472;28;20180;-78
2021/12/24 07:16:33;;;;;;;12.17;9.20;;;;;;;;;;5089243;28;20229;-77
2021/12/24 07:19:00;;;;;;;13.63;9.23;;;;;;;;;;5093470;28;20188;-83
2021/12/24 07:21:26;;;;;;;12.27;9.23;;;;;;;;;;5073407;28;20200;-85
2021/12/24 07:23:52;;;;;;;12.83;8.77;;;;;;;;;;5094633;28;20184;-82
2021/12/24 07:26:18;;;;;;;13.60;9.77;;;;;;;;;;5080143;28;20209;-86
2021/12/24 07:28:44;;;;;;;17.20;9.97;;;;;;;;;;5059079;28;20208;-87
2021/12/24 07:31:10;;;;;;;12.47;8.97;;;;;;;;;;5069788;28;20563;-81
2021/12/24 07:33:37;;;;;;;13.57;9.30;;;;;;;;;;5094052;28;20561;-81
2021/12/24 07:36:03;;;;;;;14.57;9.87;;;;;;;;;;5093591;28;20776;-81
2021/12/24 07:38:29;;;;;;;12.63;9.63;;;;;;;;;;5092802;28;20192;-81
2021/12/24 07:40:56;;;;;;;12.73;9.50;;;;;;;;;;5053649;28;20205;-81
2021/12/24 07:43:22;;;;;;;13.87;10.03;;;;;;;;;;5047290;28;20185;-81
2021/12/24 07:45:50;;;;;;;15.77;10.67;;;;;;;;;;5067702;28;20227;-81
2021/12/24 07:48:26;;;;;;;12.97;9.47;;;;;;;;;;5072046;28;20184;-81
2021/12/24 07:53:18;;;;;;;12.03;9.30;;;;;;;;;;5090862;28;20176;-81
2021/12/24 07:55:45;;;;;;;12.30;9.40;;;;;;;;;;5080872;28;20571;-81
2021/12/24 07:58:13;;;;;;;16.07;10.67;;;;;;;;;;5071874;28;20624;-81
2021/12/24 08:00:40;;;;;;;15.00;9.90;;;;;;;;;;5090324;28;20185;-82
2021/12/24 08:03:06;;;;;;;12.67;9.23;;;;;;;;;;5072173;28;20180;-82
2021/12/24 08:05:35;;;;;;;11.23;8.77;;;;;;;;;;5069050;28;20207;-82
2021/12/24 08:08:01;;;;;;;13.67;9.50;;;;;;;;;;5070645;28;20184;-81
2021/12/24 08:10:27;;;;;;;12.10;9.17;;;;;;;;;;5087590;28;20215;-82
2021/12/24 08:12:54;;;;;;;15.70;10.33;;;;;;;;;;5069517;28;20185;-82
2021/12/24 08:15:21;;;;;;;14.00;10.43;;;;;;;;;;5085684;28;20208;-82
2021/12/24 08:17:47;;;;;;;11.83;9.67;;;;;;;;;;5079575;28;20184;-82
2021/12/24 08:20:15;;;;;;;12.90;9.37;;;;;;;;;;5068413;28;20646;-82
2021/12/24 08:22:41;;;;;;;10.60;8.57;;;;;;;;;;5083411;28;20212;-82
2021/12/24 08:25:09;;;;;;;14.43;10.00;;;;;;;;;;5051921;28;20924;-81
2021/12/24 08:27:38;;;;;;;14.23;9.93;;;;;;;;;;5069224;28;20185;-82
2021/12/24 08:30:05;;;;;;;14.70;9.73;;;;;;;;;;5084039;28;20189;-82
2021/12/24 08:32:36;;;;;;;13.30;8.93;;;;;;;;;;5090244;28;20185;-81
2021/12/24 08:35:03;;;;;;;13.27;9.37;;;;;;;;;;5068093;28;20220;-79
2021/12/24 08:37:30;;;;;;;11.67;9.10;;;;;;;;;;5066713;28;20189;-79
2021/12/24 08:39:57;;;;;;;11.43;8.50;;;;;;;;;;5089705;28;20208;-78
2021/12/24 08:42:23;;;;;;;10.93;8.33;;;;;;;;;;5072029;28;20211;-77
2021/12/24 08:44:49;;;;;;;13.50;9.57;;;;;;;;;;5088652;28;20219;-78
2021/12/24 08:47:16;;;;;;;12.97;9.63;;;;;;;;;;5087807;28;20671;-79
2021/12/24 08:49:42;;;;;;;11.50;8.90;;;;;;;;;;5089972;28;20173;-78
2021/12/24 08:52:08;;;;;;;13.20;9.23;;;;;;;;;;5087686;28;20272;-78
2021/12/24 08:54:34;;;;;;;12.70;9.00;;;;;;;;;;5084829;28;20310;-78
2021/12/24 08:57:00;;;;;;;12.67;9.07;;;;;;;;;;5092245;28;20183;-78
2021/12/24 08:59:26;;;;;;;11.50;9.10;;;;;;;;;;5098619;28;20184;-78
2021/12/24 09:01:53;;;;;;;14.70;9.33;;;;;;;;;;5100538;28;20287;-78
2021/12/24 09:04:20;;;;;;;12.30;8.63;;;;;;;;;;5099385;28;20206;-77
2021/12/24 09:06:47;;;;;;;14.37;9.97;;;;;;;;;;5090777;28;20192;-78
2021/12/24 09:09:13;;;;;;;12.53;9.83;;;;;;;;;;5089421;28;20176;-77
2021/12/24 09:11:40;;;;;;;11.33;8.70;;;;;;;;;;5074037;28;20267;-78
2021/12/24 09:14:07;;;;;;;14.17;8.90;;;;;;;;;;5091991;28;20184;-78
2021/12/24 09:16:34;;;;;;;12.37;8.80;;;;;;;;;;5090820;28;20240;-78
2021/12/24 09:19:05;;;;;;;11.27;8.90;;;;;;;;;;5091458;28;20184;-78
2021/12/24 09:21:33;;;;;;;13.07;9.10;;;;;;;;;;5091093;28;20213;-78
2021/12/24 09:23:59;;;;;;;12.97;9.10;;;;;;;;;;5091212;28;20212;-78
2021/12/24 09:26:32;;;;;;;12.80;9.47;;;;;;;;;;5091798;28;20302;-78
2021/12/24 09:29:03;;;;;;;13.37;9.57;;;;;;;;;;5076111;28;20179;-78
2021/12/24 09:31:29;;;;;;;15.00;10.40;;;;;;;;;;5093231;28;20198;-78
2021/12/24 09:33:55;;;;;;;15.50;10.57;;;;;;;;;;5091151;28;20200;-78
2021/12/24 09:36:27;;;;;;;15.10;9.60;;;;;;;;;;5090723;28;20604;-78
2021/12/24 09:38:54;;;;;;;13.17;9.30;;;;;;;;;;5092128;28;20199;-78
2021/12/24 09:41:21;;;;;;;15.10;9.73;;;;;;;;;;5089291;28;20679;-77
2021/12/24 09:43:49;;;;;;;15.20;10.30;;;;;;;;;;5088613;28;20187;-78
2021/12/24 09:46:15;;;;;;;13.97;9.90;;;;;;;;;;5087569;28;20209;-78
2021/12/24 09:48:41;;;;;;;14.63;10.03;;;;;;;;;;5089148;28;20176;-78
2021/12/24 09:51:07;;;;;;;14.93;9.90;;;;;;;;;;5090761;28;20185;-78
2021/12/24 09:53:36;;;;;;;13.77;9.97;;;;;;;;;;5089426;28;20216;-78
2021/12/24 09:56:06;;;;;;;13.33;10.10;;;;;;;;;;5091765;28;20652;-78
2021/12/24 09:58:32;;;;;;;14.27;9.70;;;;;;;;;;5089213;28;20199;-78
2021/12/24 10:00:58;;;;;;;16.43;10.70;;;;;;;;;;5090971;28;20201;-78
2021/12/24 10:03:33;;;;;;;14.57;10.17;;;;;;;;;;5074451;28;20198;-78
2021/12/24 10:06:00;;;;;;;12.00;8.80;;;;;;;;;;5089972;28;20200;-78
2021/12/24 10:08:26;;;;;;;13.37;9.40;;;;;;;;;;5092178;28;20211;-78
2021/12/24 10:11:00;;;;;;;15.60;11.03;;;;;;;;;;5091487;28;20680;-78
2021/12/24 10:13:43;;;;;;;17.37;11.00;;;;;;;;;;5091582;28;20282;-78
2021/12/24 10:16:12;;;;;;;14.20;10.37;;;;;;;;;;5091062;28;20200;-78
2021/12/24 10:18:38;;;;;;;16.47;10.77;;;;;;;;;;5088497;28;20550;-78
2021/12/24 10:21:10;;;;;;;16.67;11.30;;;;;;;;;;5090046;28;20212;-78
2021/12/24 10:23:50;;;;;;;14.27;10.63;;;;;;;;;;5091035;28;20184;-78
2021/12/24 10:26:28;;;;;;;18.10;10.20;;;;;;;;;;5085391;28;20552;-78
2021/12/24 10:28:54;;;;;;;16.33;10.30;;;;;;;;;;5088084;28;20184;-78
2021/12/24 10:31:21;;;;;;;14.00;9.63;;;;;;;;;;5070925;28;20184;-79
2021/12/24 10:34:26;;;;;;;13.37;10.37;;;;;;;;;;5055010;28;20181;-84
2021/12/24 10:36:57;;;;;;;15.00;9.50;;;;;;;;;;5017818;28;20240;-81
2021/12/24 10:39:28;;;;;;;13.17;9.47;;;;;;;;;;5038663;28;20357;-81
2021/12/24 10:41:55;;;;;;;13.20;9.57;;;;;;;;;;5061075;28;20227;-78
2021/12/24 10:44:23;;;;;;;14.37;9.63;;;;;;;;;;5072724;28;20184;-77
2021/12/24 10:47:09;;;;;;;15.97;10.60;;;;;;;;;;5088754;28;20283;-79
2021/12/24 10:49:52;;;;;;;16.30;10.70;;;;;;;;;;5087934;28;20188;-77
2021/12/24 10:54:51;;;;;;;20.43;13.20;;;;;;;;;;5068899;28;20204;-79
2021/12/24 10:57:18;;;;;;;21.23;12.97;;;;;;;;;;5088368;28;20234;-80
2021/12/24 10:59:48;;;;;;;21.10;12.67;;;;;;;;;;5089994;28;20593;-81
2021/12/24 11:02:14;;;;;;;20.40;11.63;;;;;;;;;;5088014;28;20215;-82
2021/12/24 11:04:41;;;;;;;16.00;11.30;;;;;;;;;;5071749;28;20413;-80
2021/12/24 11:07:26;;;;;;;17.07;10.20;;;;;;;;;;5087013;28;20176;-82
2021/12/24 11:10:12;;;;;;;16.57;10.93;;;;;;;;;;5070045;28;20731;-81
2021/12/24 11:12:48;;;;;;;15.77;10.13;;;;;;;;;;5086798;28;20203;-80
2021/12/24 11:15:25;;;;;;;16.23;10.10;;;;;;;;;;5091390;28;20194;-76
2021/12/24 11:17:52;;;;;;;14.77;9.40;;;;;;;;;;5086132;28;20559;-77
2021/12/24 11:20:18;;;;;;;17.50;10.50;;;;;;;;;;5087477;28;20200;-78
2021/12/24 11:22:53;;;;;;;16.03;9.70;;;;;;;;;;5086242;28;20230;-76
2021/12/24 11:25:20;;;;;;;15.43;9.90;;;;;;;;;;5088086;28;20674;-77
2021/12/24 11:27:46;;;;;;;14.23;10.40;;;;;;;;;;5087441;28;20568;-76
2021/12/24 11:30:14;;;;;;;15.37;9.83;;;;;;;;;;5086924;28;20177;-76
2021/12/24 11:32:41;;;;;;;15.20;10.97;;;;;;;;;;5087664;28;20185;-76
2021/12/24 11:35:07;;;;;;;15.07;10.50;;;;;;;;;;5088240;28;20238;-76
2021/12/24 11:37:34;;;;;;;16.07;9.97;;;;;;;;;;5085853;28;20184;-76
2021/12/24 11:40:02;;;;;;;17.17;10.73;;;;;;;;;;5086112;28;20164;-77
2021/12/24 11:42:32;;;;;;;14.77;10.23;;;;;;;;;;5088441;28;20211;-77
2021/12/24 11:44:58;;;;;;;16.33;9.53;;;;;;;;;;5087130;28;20586;-76
2021/12/24 11:47:24;;;;;;;17.37;10.40;;;;;;;;;;5086770;28;20699;-79
2021/12/24 11:49:50;;;;;;;15.37;9.80;;;;;;;;;;5084364;28;20180;-77
2021/12/24 11:52:17;;;;;;;13.73;9.23;;;;;;;;;;5070138;28;20271;-77
2021/12/24 11:54:44;;;;;;;13.03;9.67;;;;;;;;;;5068560;28;20240;-76
2021/12/24 11:57:21;;;;;;;14.07;10.03;;;;;;;;;;5084132;28;20184;-75
2021/12/24 11:59:47;;;;;;;13.60;9.80;;;;;;;;;;5086505;28;20504;-76
2021/12/24 12:02:32;;;;;;;15.67;10.37;;;;;;;;;;5082998;28;20212;-76
2021/12/24 12:05:12;;;;;;;14.60;10.40;;;;;;;;;;5057344;28;20907;-77
2021/12/24 12:07:38;;;;;;;14.07;9.77;;;;;;;;;;5082581;28;20261;-76
2021/12/24 12:10:04;;;;;;;13.63;9.80;;;;;;;;;;5080977;28;20185;-76
2021/12/24 12:12:34;;;;;;;16.10;9.53;;;;;;;;;;5083454;28;20833;-75
2021/12/24 12:15:19;;;;;;;16.30;10.70;;;;;;;;;;5069656;28;20204;-78
2021/12/24 12:17:50;;;;;;;16.37;10.30;;;;;;;;;;5064710;28;20217;-79
2021/12/24 12:20:35;;;;;;;15.87;9.73;;;;;;;;;;5057448;28;20210;-77
2021/12/24 12:23:02;;;;;;;13.20;9.27;;;;;;;;;;5082341;28;20558;-78
2021/12/24 12:25:36;;;;;;;14.67;10.87;;;;;;;;;;5082329;28;20205;-75
2021/12/24 12:28:07;;;;;;;14.97;8.90;;;;;;;;;;5094062;28;20157;-77
2021/12/24 12:30:39;;;;;;;13.83;9.33;;;;;;;;;;5092788;28;20180;-80
2021/12/24 12:33:05;;;;;;;16.87;10.13;;;;;;;;;;5072793;28;20181;-78
2021/12/24 12:35:36;;;;;;;13.80;9.50;;;;;;;;;;5092975;28;20282;-77
2021/12/24 12:38:03;;;;;;;12.27;9.27;;;;;;;;;;5088789;28;20187;-76
2021/12/24 12:40:34;;;;;;;13.97;9.27;;;;;;;;;;5082410;28;20208;-76
2021/12/24 12:43:06;;;;;;;15.90;9.50;;;;;;;;;;5085913;28;20176;-77
2021/12/24 12:45:36;;;;;;;11.67;8.70;;;;;;;;;;5085279;28;20197;-81
2021/12/24 12:48:07;;;;;;;14.77;9.13;;;;;;;;;;5092005;28;20331;-80
2021/12/24 12:50:34;;;;;;;14.27;9.73;;;;;;;;;;5076152;28;20177;-77
2021/12/24 12:53:19;;;;;;;15.07;9.93;;;;;;;;;;5090175;28;20577;-84
2021/12/24 12:55:45;;;;;;;13.33;9.40;;;;;;;;;;5088434;28;20207;-77
2021/12/24 12:58:18;;;;;;;14.03;9.07;;;;;;;;;;5067376;28;20259;-77
2021/12/24 13:01:01;;;;;;;10.77;8.10;;;;;;;;;;5091311;28;20238;-77
2021/12/24 13:03:28;;;;;;;10.93;8.03;;;;;;;;;;5065997;28;20225;-75
2021/12/24 13:05:57;;;;;;;13.30;8.90;;;;;;;;;;5086151;28;20220;-78
2021/12/24 13:08:25;;;;;;;9.93;7.43;;;;;;;;;;5070052;28;20230;-78
2021/12/24 13:10:54;;;;;;;11.33;7.60;;;;;;;;;;5089757;28;20192;-77
2021/12/24 13:13:20;;;;;;;12.97;9.10;;;;;;;;;;5086939;28;20177;-79
2021/12/24 13:15:47;;;;;;;12.90;8.40;;;;;;;;;;5066362;28;20379;-77
2021/12/24 13:18:24;;;;;;;10.57;7.80;;;;;;;;;;5083251;28;20226;-77
2021/12/24 13:23:29;;;;;;;10.63;7.70;;;;;;;;;;5090423;28;20172;-75
2021/12/24 13:25:55;;;;;;;9.83;6.73;;;;;;;;;;5089945;28;20197;-76
2021/12/24 13:28:22;;;;;;;13.10;8.93;;;;;;;;;;5090165;28;20218;-76
2021/12/24 13:30:48;;;;;;;12.50;8.83;;;;;;;;;;5089587;28;20184;-75
2021/12/24 13:33:14;;;;;;;11.70;8.33;;;;;;;;;;5087788;28;20180;-76
2021/12/24 13:35:43;;;;;;;13.43;8.67;;;;;;;;;;5084381;28;20219;-76
2021/12/24 13:38:13;;;;;;;15.07;8.33;;;;;;;;;;5085786;28;20177;-75
2021/12/24 13:40:39;;;;;;;16.30;8.37;;;;;;;;;;5090576;28;20177;-75
2021/12/24 13:43:07;;;;;;;15.93;9.03;;;;;;;;;;5087521;28;20487;-75
2021/12/24 13:45:36;;;;;;;17.53;10.10;;;;;;;;;;5066775;28;20213;-76
2021/12/24 13:48:08;;;;;;;17.63;9.53;;;;;;;;;;5090794;28;20188;-76
2021/12/24 13:56:21;;;;;;;12.57;9.47;;;;;;;;;;5058352;28;20228;-75
2021/12/24 13:58:55;;;;;;;11.37;8.00;;;;;;;;;;5089108;28;20212;-75
2021/12/24 14:01:25;;;;;;;8.93;7.23;;;;;;;;;;5069120;28;20243;-77
2021/12/24 14:03:52;;;;;;;10.07;6.87;;;;;;;;;;5081992;28;20188;-73
2021/12/24 14:06:18;;;;;;;9.93;7.43;;;;;;;;;;5086401;28;20207;-79
2021/12/24 14:08:45;;;;;;;8.70;6.67;;;;;;;;;;5084764;28;20219;-76
2021/12/24 14:11:13;;;;;;;12.47;9.83;;;;;;;;;;5088116;28;20179;-75
2021/12/24 14:13:49;;;;;;;31.47;22.53;;;;;;;;;;5086143;28;20270;-77
2021/12/24 14:19:08;;;;;;;51.73;39.77;;;;;;;;;;5074988;28;20188;-75
2021/12/24 14:24:14;;;;;;;17.87;14.20;;;;;;;;;;5086393;28;20181;-76
2021/12/24 14:26:41;;;;;;;13.90;10.67;;;;;;;;;;5089146;28;20200;-76
2021/12/24 14:29:07;;;;;;;9.33;7.83;;;;;;;;;;5086672;28;20172;-75
2021/12/24 14:31:50;;;;;;;9.47;7.33;;;;;;;;;;5090439;28;20522;-78
2021/12/24 14:34:37;;;;;;;8.50;7.10;;;;;;;;;;5089979;28;20684;-74
2021/12/24 14:37:25;;;;;;;8.47;6.93;;;;;;;;;;5080112;28;20175;-75
2021/12/24 14:40:03;;;;;;;9.90;7.80;;;;;;;;;;5090034;28;20199;-77
2021/12/24 14:42:31;;;;;;;11.13;10.00;;;;;;;;;;5083116;28;20219;-75
2021/12/24 14:45:16;;;;;;;8.97;7.67;;;;;;;;;;5085170;28;20212;-79
2021/12/24 14:47:42;;;;;;;8.97;7.23;;;;;;;;;;5070668;28;20212;-76
2021/12/24 14:50:10;;;;;;;8.03;6.90;;;;;;;;;;5091292;28;20180;-76
2021/12/24 14:52:37;;;;;;;11.43;9.10;;;;;;;;;;5091526;28;20310;-76
2021/12/24 14:55:09;;;;;;;10.83;8.37;;;;;;;;;;5091900;28;20246;-76
2021/12/24 14:57:44;;;;;;;8.67;6.97;;;;;;;;;;5086772;28;20682;-76
2021/12/24 15:00:11;;;;;;;8.67;7.00;;;;;;;;;;5071202;28;20184;-76
2021/12/24 15:02:42;;;;;;;8.87;6.70;;;;;;;;;;5072574;28;20680;-76
2021/12/24 15:05:08;;;;;;;8.33;6.73;;;;;;;;;;5070873;28;20683;-76
2021/12/24 15:07:35;;;;;;;8.37;7.10;;;;;;;;;;5083274;28;20930;-77
2021/12/24 15:10:27;;;;;;;8.90;7.07;;;;;;;;;;5090720;28;20173;-76
2021/12/24 15:13:02;;;;;;;8.63;7.37;;;;;;;;;;5071474;28;20204;-76
2021/12/24 15:15:29;;;;;;;9.17;7.33;;;;;;;;;;5090314;28;20207;-76
2021/12/24 15:17:55;;;;;;;8.17;6.90;;;;;;;;;;5090761;28;20181;-75
2021/12/24 15:20:22;;;;;;;8.30;6.80;;;;;;;;;;5091940;28;20701;-76
2021/12/24 15:22:49;;;;;;;8.57;7.67;;;;;;;;;;5090264;28;20216;-76
2021/12/24 15:25:16;;;;;;;9.00;7.30;;;;;;;;;;5073696;28;20199;-76
2021/12/24 15:27:42;;;;;;;10.13;7.73;;;;;;;;;;5090418;28;20241;-76
2021/12/24 15:30:10;;;;;;;8.40;7.20;;;;;;;;;;5091494;28;20179;-76
2021/12/24 15:32:36;;;;;;;9.03;7.63;;;;;;;;;;5088623;28;20192;-76
2021/12/24 15:35:03;;;;;;;8.73;6.70;;;;;;;;;;5076243;28;20216;-76
2021/12/24 15:37:29;;;;;;;9.77;7.33;;;;;;;;;;5092054;28;20682;-76
2021/12/24 15:39:55;;;;;;;8.67;7.57;;;;;;;;;;5092053;28;20173;-76
2021/12/24 15:42:25;;;;;;;7.47;6.67;;;;;;;;;;5090530;28;20200;-76
2021/12/24 15:44:51;;;;;;;8.57;7.10;;;;;;;;;;5090902;28;20279;-76
2021/12/24 15:47:17;;;;;;;9.53;7.50;;;;;;;;;;5089794;28;20172;-75
2021/12/24 15:49:44;;;;;;;10.00;8.03;;;;;;;;;;5090011;28;20195;-76
2021/12/24 15:52:10;;;;;;;9.53;7.63;;;;;;;;;;5091380;28;20200;-76
2021/12/24 15:54:36;;;;;;;8.93;7.00;;;;;;;;;;5090945;28;20180;-76
2021/12/24 15:57:03;;;;;;;7.63;6.73;;;;;;;;;;5073134;28;20195;-76
2021/12/24 15:59:33;;;;;;;8.53;7.37;;;;;;;;;;5088982;28;20237;-76
2021/12/24 16:02:00;;;;;;;7.87;6.77;;;;;;;;;;5091204;28;20204;-75
2021/12/24 16:04:26;;;;;;;8.30;7.27;;;;;;;;;;5091732;28;20171;-75
2021/12/24 16:06:52;;;;;;;8.40;7.50;;;;;;;;;;5090855;28;20196;-76
2021/12/24 16:09:20;;;;;;;8.10;7.07;;;;;;;;;;5088851;28;20208;-75
2021/12/24 16:11:47;;;;;;;8.70;7.10;;;;;;;;;;5091005;28;20587;-75
2021/12/24 16:14:13;;;;;;;8.73;7.00;;;;;;;;;;5091313;28;20172;-76
2021/12/24 16:16:44;;;;;;;9.87;7.90;;;;;;;;;;5089717;28;20214;-76
2021/12/24 16:19:11;;;;;;;9.80;7.33;;;;;;;;;;5089092;28;20184;-76
2021/12/24 16:21:37;;;;;;;10.83;8.87;;;;;;;;;;5105286;28;20298;-76
2021/12/24 16:24:04;;;;;;;10.93;8.33;;;;;;;;;;5079981;28;20192;-76
2021/12/24 16:26:30;;;;;;;10.23;7.90;;;;;;;;;;5089210;28;20287;-76
2021/12/24 16:28:57;;;;;;;9.47;7.97;;;;;;;;;;5084937;28;20264;-76